< Cyclone 200203 2002 Season Cyclone 200205 >
Cyclone 200204 (CHRIS)
General InformationTrack Information on Google MapsDetailed Wind InformationList of All Images || ResourceGoogle EarthGE AnimationAtom FeedGeoJSON
Detalied Best Track (Time Zone = UTC)
Year Month Day Hour Lat. Long. Pressure (hPa) Wind (kt) Class Image Chart
2002 2 2 04 -13.0 120.8 1003 23 2 Image --
2002 2 2 10 -13.4 122.2 1001 25 2 Image --
2002 2 2 16 -14.3 122.0 998 29 2 Image --
2002 2 2 22 -14.9 121.6 995 35 3 Image --
2002 2 3 01 -15.2 121.4 992 39 3 Image --
2002 2 3 04 -15.4 121.2 990 41 3 Image --
2002 2 3 07 -15.6 121.1 988 45 3 Image --
2002 2 3 10 -15.8 120.9 985 49 4 Image --
2002 2 3 13 -15.9 120.8 980 54 4 Image --
2002 2 3 16 -16.0 120.8 975 60 4 Image --
2002 2 3 19 -16.1 120.9 975 60 4 Image --
2002 2 3 22 -16.3 121.0 970 64 5 Image --
2002 2 4 01 -16.5 121.1 965 70 5 Image --
2002 2 4 04 -16.8 121.0 960 76 5 Image --
2002 2 4 07 -17.2 121.0 955 80 5 Image --
2002 2 4 10 -17.5 120.9 950 84 5 Image --
2002 2 4 13 -17.7 120.6 945 89 5 Image --
2002 2 4 16 -17.8 120.4 940 93 5 Image --
2002 2 4 19 -17.9 120.3 935 97 5 Image --
2002 2 4 22 -18.0 120.2 930 101 5 Image --
2002 2 5 01 -18.1 120.2 925 105 5 Image --
2002 2 5 04 -18.3 120.3 925 105 5 Image --
2002 2 5 07 -18.6 120.3 920 107 5 Image --
2002 2 5 10 -18.8 120.4 920 107 5 Image --
2002 2 5 13 -19.1 120.4 915 111 5 Image --
2002 2 5 16 -19.4 120.3 915 111 5 Image --
2002 2 5 19 -19.7 120.1 915 111 5 Image --
2002 2 5 22 -20.0 120.0 920 107 5 Image --
2002 2 6 01 -20.3 119.8 940 93 5 Image --
2002 2 6 04 -20.7 119.7 960 76 5 Image --
2002 2 6 07 -21.1 119.6 975 60 4 Image --
2002 2 6 10 -21.5 119.6 985 49 4 Image --
2002 2 6 16 -21.9 119.3 998 29 2 Image --
2002 2 6 22 -22.0 119.1 1000 27 2 Image --
2002 2 7 04 -22.2 119.0 1002 23 2 Image --
< Cyclone 200203 2002 Season Cyclone 200205 >

Help